createdAt,value
2017-05-19T00:01:52.084Z,13.98
2017-05-19T00:04:20.592Z,12.73
2017-05-19T00:06:49.104Z,14.93
2017-05-19T00:09:17.722Z,11.53
2017-05-19T00:11:46.235Z,12.40
2017-05-19T00:14:14.745Z,11.70
2017-05-19T00:16:43.293Z,12.87
2017-05-19T00:19:11.797Z,11.82
2017-05-19T00:21:40.311Z,12.85
2017-05-19T00:24:08.864Z,11.48
2017-05-19T00:26:37.376Z,12.42
2017-05-19T00:29:05.892Z,14.22
2017-05-19T00:31:34.436Z,16.78
2017-05-19T00:34:03.015Z,12.62
2017-05-19T00:36:31.541Z,13.25
2017-05-19T00:39:00.104Z,14.43
2017-05-19T00:41:28.617Z,13.92
2017-05-19T00:43:57.234Z,10.83
2017-05-19T00:46:25.799Z,10.50
2017-05-19T00:48:54.318Z,12.35
2017-05-19T00:51:22.823Z,11.63
2017-05-19T00:53:51.372Z,11.03
2017-05-19T00:56:19.931Z,12.00
2017-05-19T00:58:48.461Z,12.02
2017-05-19T01:01:17.040Z,11.62
2017-05-19T01:03:45.550Z,15.35
2017-05-19T01:06:14.052Z,12.07
2017-05-19T01:08:42.605Z,12.32
2017-05-19T01:11:11.109Z,12.27
2017-05-19T01:13:39.624Z,11.95
2017-05-19T01:16:08.188Z,15.22
2017-05-19T01:18:36.700Z,12.67
2017-05-19T01:21:05.326Z,15.52
2017-05-19T01:23:33.882Z,11.97
2017-05-19T01:26:03.438Z,13.60
2017-05-19T01:28:31.946Z,13.48
2017-05-19T01:31:00.494Z,14.92
2017-05-19T01:33:29.054Z,11.50
2017-05-19T01:35:57.605Z,10.77
2017-05-19T01:38:26.407Z,10.47
2017-05-19T01:40:54.927Z,12.07
2017-05-19T01:43:23.428Z,14.22
2017-05-19T01:45:52.004Z,12.40
2017-05-19T01:48:20.527Z,12.35
2017-05-19T01:50:49.062Z,13.13
2017-05-19T01:53:17.669Z,17.10
2017-05-19T01:55:46.166Z,16.27
2017-05-19T01:58:14.679Z,12.25
2017-05-19T02:00:43.221Z,16.72
2017-05-19T02:03:11.733Z,13.20
2017-05-19T02:05:40.241Z,14.92
2017-05-19T02:08:08.793Z,13.30
2017-05-19T02:10:37.299Z,13.38
2017-05-19T02:13:05.825Z,12.80
2017-05-19T02:15:34.372Z,14.73
2017-05-19T02:18:02.882Z,14.25
2017-05-19T02:20:31.458Z,13.22
2017-05-19T02:23:00.014Z,14.17
2017-05-19T02:25:28.524Z,14.57
2017-05-19T02:27:57.034Z,14.05
2017-05-19T02:30:25.575Z,15.65
2017-05-19T02:32:54.081Z,13.08
2017-05-19T02:35:22.593Z,13.62
2017-05-19T02:37:51.145Z,15.62
2017-05-19T02:40:19.674Z,14.02
2017-05-19T02:42:48.182Z,12.12
2017-05-19T02:45:16.741Z,13.27
2017-05-19T02:47:45.249Z,14.57
2017-05-19T02:50:13.760Z,16.50
2017-05-19T02:52:42.309Z,15.10
2017-05-19T02:55:10.816Z,14.55
2017-05-19T02:57:39.325Z,18.40
2017-05-19T03:00:07.877Z,14.33
2017-05-19T03:02:36.377Z,14.27
2017-05-19T03:05:04.893Z,14.77
2017-05-19T03:07:33.445Z,14.05
2017-05-19T03:10:01.962Z,17.33
2017-05-19T03:12:30.473Z,17.48
2017-05-19T03:14:59.026Z,15.07
2017-05-19T03:17:27.529Z,14.45
2017-05-19T03:19:56.037Z,15.27
2017-05-19T03:22:24.589Z,18.00
2017-05-19T03:24:53.100Z,15.78
2017-05-19T03:27:21.608Z,17.62
2017-05-19T03:29:50.155Z,15.60
2017-05-19T03:32:18.717Z,19.13
2017-05-19T03:34:47.232Z,22.20
2017-05-19T03:37:15.784Z,19.22
2017-05-19T03:39:44.297Z,14.83
2017-05-19T03:42:12.801Z,17.52
2017-05-19T03:44:41.350Z,15.02
2017-05-19T03:47:09.861Z,16.57
2017-05-19T03:49:38.376Z,17.77
2017-05-19T03:52:06.955Z,14.73
2017-05-19T03:54:35.462Z,13.70
2017-05-19T03:57:03.972Z,14.55
2017-05-19T03:59:32.545Z,17.22
2017-05-19T04:02:01.048Z,15.25
2017-05-19T04:04:29.548Z,14.87
2017-05-19T04:06:58.093Z,15.63
2017-05-19T04:09:26.597Z,15.77
2017-05-19T04:11:55.123Z,18.95
2017-05-19T04:14:23.700Z,15.68
2017-05-19T04:16:52.225Z,16.50
2017-05-19T04:19:20.733Z,15.55
2017-05-19T04:21:49.283Z,18.32
2017-05-19T04:24:17.788Z,16.33
2017-05-19T04:26:46.307Z,14.62
2017-05-19T04:29:14.864Z,18.97
2017-05-19T04:31:43.374Z,15.32
2017-05-19T04:34:11.889Z,16.17
2017-05-19T04:36:40.436Z,14.93
2017-05-19T04:39:08.940Z,15.27
2017-05-19T04:41:37.448Z,16.70
2017-05-19T04:44:06.008Z,16.55
2017-05-19T04:46:34.516Z,15.48
2017-05-19T04:49:03.065Z,19.72
2017-05-19T04:51:31.645Z,18.50
2017-05-19T04:54:00.170Z,16.02
2017-05-19T04:56:28.681Z,20.93
2017-05-19T04:58:57.233Z,16.30
2017-05-19T05:01:25.739Z,16.32
2017-05-19T05:03:54.260Z,16.00
2017-05-19T05:06:22.813Z,15.12
2017-05-19T05:08:51.325Z,16.02
2017-05-19T05:11:19.836Z,15.28
2017-05-19T05:13:48.392Z,14.60
2017-05-19T05:16:16.895Z,13.03
2017-05-19T05:18:45.396Z,13.72
2017-05-19T05:21:13.980Z,13.77
2017-05-19T05:23:42.488Z,12.58
2017-05-19T05:26:11.056Z,13.52
2017-05-19T05:28:39.881Z,11.12
2017-05-19T05:31:08.391Z,12.83
2017-05-19T05:33:36.896Z,12.37
2017-05-19T05:36:05.441Z,11.27
2017-05-19T05:38:33.954Z,12.48
2017-05-19T05:41:02.459Z,12.27
2017-05-19T05:43:31.009Z,12.17
2017-05-19T05:45:59.519Z,13.43
2017-05-19T05:48:28.026Z,10.95
2017-05-19T05:50:56.598Z,10.10
2017-05-19T05:53:25.125Z,12.87
2017-05-19T05:55:53.633Z,9.74
2017-05-19T05:58:22.222Z,10.28
2017-05-19T06:00:50.735Z,11.17
2017-05-19T06:03:19.250Z,11.60
2017-05-19T06:05:47.817Z,10.53
2017-05-19T06:08:16.325Z,9.40
2017-05-19T06:10:44.837Z,9.95
2017-05-19T06:13:13.432Z,9.76
2017-05-19T06:15:41.955Z,8.98
2017-05-19T06:18:10.472Z,11.15
2017-05-19T06:20:39.025Z,8.48
2017-05-19T06:23:07.535Z,10.12
2017-05-19T06:25:36.032Z,9.04
2017-05-19T06:28:04.579Z,7.48
2017-05-19T06:30:33.087Z,12.66
2017-05-19T06:33:03.488Z,10.94
2017-05-19T06:35:32.047Z,11.76
2017-05-19T06:38:00.531Z,7.68
2017-05-19T06:40:29.014Z,9.00
2017-05-19T06:42:57.550Z,6.64
2017-05-19T06:45:26.037Z,7.98
2017-05-19T06:47:54.523Z,8.04
2017-05-19T06:50:23.067Z,7.06
2017-05-19T06:52:51.563Z,7.22
2017-05-19T06:55:20.064Z,6.24
2017-05-19T06:57:48.607Z,8.18
2017-05-19T07:00:17.099Z,6.70
2017-05-19T07:02:45.592Z,7.06
2017-05-19T07:05:14.126Z,11.18
2017-05-19T07:07:42.628Z,10.48
2017-05-19T07:10:11.147Z,7.50
2017-05-19T07:12:39.683Z,7.54
2017-05-19T07:15:08.169Z,7.12
2017-05-19T07:17:36.659Z,9.76
2017-05-19T07:20:05.196Z,10.74
2017-05-19T07:22:33.692Z,7.00
2017-05-19T07:25:02.192Z,6.02
2017-05-19T07:27:30.724Z,6.60
2017-05-19T07:29:59.214Z,6.10
2017-05-19T07:32:27.703Z,7.18
2017-05-19T07:34:56.259Z,6.14
2017-05-19T07:37:24.747Z,5.88
2017-05-19T07:39:53.252Z,7.64
2017-05-19T07:42:21.787Z,6.38
2017-05-19T07:44:50.281Z,4.92
2017-05-19T07:47:18.777Z,5.14
2017-05-19T07:49:47.315Z,7.44
2017-05-19T07:52:15.810Z,4.98
2017-05-19T07:54:44.304Z,8.22
2017-05-19T07:57:12.868Z,5.50
2017-05-19T07:59:41.368Z,9.22
2017-05-19T08:02:09.859Z,7.48
2017-05-19T08:04:38.396Z,8.00
2017-05-19T08:07:06.892Z,5.20
2017-05-19T08:09:35.385Z,5.26
2017-05-19T08:12:03.919Z,4.02
2017-05-19T08:14:32.415Z,5.16
2017-05-19T08:17:00.905Z,6.82
2017-05-19T08:19:29.435Z,5.74
2017-05-19T08:21:57.918Z,4.52
2017-05-19T08:24:26.405Z,5.30
2017-05-19T08:26:54.943Z,5.36
2017-05-19T08:29:23.439Z,4.24
2017-05-19T08:31:51.931Z,5.10
2017-05-19T08:34:20.471Z,5.38
2017-05-19T08:36:48.960Z,4.48
2017-05-19T08:39:17.461Z,4.74
2017-05-19T08:41:45.999Z,5.48
2017-05-19T08:44:14.492Z,5.74
2017-05-19T08:46:42.987Z,4.28
2017-05-19T08:49:11.538Z,5.50
2017-05-19T08:51:40.029Z,4.50
2017-05-19T08:54:08.519Z,5.20
2017-05-19T08:56:37.048Z,5.74
2017-05-19T08:59:05.535Z,4.70
2017-05-19T09:01:34.022Z,4.58
2017-05-19T09:04:02.555Z,3.58
2017-05-19T09:06:31.042Z,4.30
2017-05-19T09:08:59.539Z,3.84
2017-05-19T09:11:28.075Z,3.92
2017-05-19T09:13:56.567Z,3.42
2017-05-19T09:16:25.065Z,5.50
2017-05-19T09:18:53.615Z,4.80
2017-05-19T09:21:22.109Z,4.96
2017-05-19T09:23:50.597Z,13.48
2017-05-19T09:26:19.126Z,5.58
2017-05-19T09:28:47.610Z,3.88
2017-05-19T09:31:16.095Z,4.38
2017-05-19T09:33:44.631Z,4.50
2017-05-19T09:36:13.126Z,3.70
2017-05-19T09:38:41.614Z,3.63
2017-05-19T09:41:10.146Z,4.55
2017-05-19T09:43:38.647Z,5.28
2017-05-19T09:46:07.135Z,4.30
2017-05-19T09:48:35.673Z,4.07
2017-05-19T09:51:04.163Z,4.73
2017-05-19T09:53:32.670Z,4.72
2017-05-19T09:56:01.207Z,4.55
2017-05-19T09:58:29.694Z,4.92
2017-05-19T10:00:58.196Z,5.17
2017-05-19T10:03:26.731Z,5.03
2017-05-19T10:05:55.219Z,4.57
2017-05-19T10:08:23.717Z,4.57
2017-05-19T10:10:52.243Z,5.70
2017-05-19T10:13:20.727Z,5.55
2017-05-19T10:15:49.210Z,5.17
2017-05-19T10:18:17.738Z,5.75
2017-05-19T10:20:46.226Z,7.95
2017-05-19T10:23:14.725Z,7.55
2017-05-19T10:25:43.259Z,4.28
2017-05-19T10:28:11.751Z,5.43
2017-05-19T10:30:40.250Z,5.97
2017-05-19T10:33:08.788Z,6.37
2017-05-19T10:35:37.280Z,6.77
2017-05-19T10:38:05.771Z,4.80
2017-05-19T10:40:34.302Z,9.45
2017-05-19T10:43:02.790Z,4.17
2017-05-19T10:45:31.282Z,5.03
2017-05-19T10:47:59.834Z,4.92
2017-05-19T10:50:28.323Z,4.42
2017-05-19T10:52:56.820Z,8.13
2017-05-19T10:55:25.363Z,6.97
2017-05-19T10:57:53.864Z,8.95
2017-05-19T11:00:22.346Z,4.22
2017-05-19T11:02:50.878Z,5.07
2017-05-19T11:05:19.366Z,9.52
2017-05-19T11:07:47.863Z,5.08
2017-05-19T11:10:16.767Z,5.05
2017-05-19T11:12:45.254Z,6.78
2017-05-19T11:15:13.740Z,5.08
2017-05-19T11:17:42.267Z,4.53
2017-05-19T11:20:10.391Z,6.92
2017-05-19T11:22:38.885Z,4.33
2017-05-19T11:25:07.418Z,5.32
2017-05-19T11:27:35.920Z,4.43
2017-05-19T11:30:04.419Z,5.62
2017-05-19T11:32:32.951Z,4.80
2017-05-19T11:35:01.439Z,4.62
2017-05-19T11:37:29.933Z,6.95
2017-05-19T11:39:58.474Z,7.08
2017-05-19T11:42:26.961Z,11.87
2017-05-19T11:44:55.451Z,4.23
2017-05-19T11:47:23.979Z,4.68
2017-05-19T11:49:52.462Z,6.87
2017-05-19T11:52:20.946Z,5.35
2017-05-19T11:54:49.477Z,5.55
2017-05-19T11:57:17.969Z,7.92
2017-05-19T11:59:46.462Z,5.47
2017-05-19T12:02:14.987Z,5.47
2017-05-19T12:04:43.488Z,6.30
2017-05-19T12:07:11.981Z,5.57
2017-05-19T12:10:02.278Z,4.63
2017-05-19T12:12:30.762Z,8.32
2017-05-19T12:14:59.253Z,9.60
2017-05-19T12:17:27.795Z,7.85
2017-05-19T12:19:56.290Z,5.20
2017-05-19T12:22:24.783Z,5.10
2017-05-19T12:24:53.312Z,6.30
2017-05-19T12:27:21.816Z,4.70
2017-05-19T12:29:50.311Z,4.28
2017-05-19T12:32:18.852Z,7.98
2017-05-19T12:34:47.342Z,7.18
2017-05-19T12:37:15.836Z,5.73
2017-05-19T12:39:44.520Z,5.77
2017-05-19T12:42:13.007Z,4.32
2017-05-19T12:44:41.500Z,4.35
2017-05-19T12:47:10.034Z,3.90
2017-05-19T12:49:38.530Z,6.03
2017-05-19T12:52:07.014Z,15.82
2017-05-19T12:54:35.556Z,6.55
2017-05-19T12:57:04.057Z,4.73
2017-05-19T12:59:32.556Z,4.48
2017-05-19T13:02:01.100Z,6.42
2017-05-19T13:04:29.611Z,4.03
2017-05-19T13:06:58.113Z,5.80
2017-05-19T13:09:26.652Z,8.22
2017-05-19T13:11:55.154Z,5.03
2017-05-19T13:14:23.653Z,5.27
2017-05-19T13:16:52.207Z,5.47
2017-05-19T13:19:20.714Z,7.55
2017-05-19T13:21:49.218Z,6.63
2017-05-19T13:24:17.765Z,11.60
2017-05-19T13:26:46.261Z,4.55
2017-05-19T13:29:14.763Z,5.77
2017-05-19T13:31:43.312Z,5.03
2017-05-19T13:34:11.817Z,8.07
2017-05-19T13:36:40.321Z,6.57
2017-05-19T13:39:08.859Z,6.40
2017-05-19T13:41:37.358Z,7.50
2017-05-19T13:44:05.855Z,6.60
2017-05-19T13:46:34.405Z,6.42
2017-05-19T13:49:02.899Z,5.18
2017-05-19T13:51:31.405Z,10.37
2017-05-19T13:53:59.949Z,5.43
2017-05-19T13:56:28.453Z,5.45
2017-05-19T13:58:56.955Z,5.67
2017-05-19T14:01:25.522Z,4.65
2017-05-19T14:03:54.034Z,4.62
2017-05-19T14:06:22.544Z,8.70
2017-05-19T14:08:51.088Z,5.08
2017-05-19T14:11:19.584Z,5.70
2017-05-19T14:13:48.088Z,4.48
2017-05-19T14:16:16.637Z,6.27
2017-05-19T14:18:45.150Z,6.32
2017-05-19T14:21:13.660Z,4.72
2017-05-19T14:23:42.205Z,6.38
2017-05-19T14:26:10.708Z,4.58
2017-05-19T14:28:39.215Z,5.22
2017-05-19T14:31:07.757Z,7.88
2017-05-19T14:33:36.253Z,4.37
2017-05-19T14:36:04.760Z,5.15
2017-05-19T14:38:33.305Z,6.88
2017-05-19T14:41:01.824Z,7.63
2017-05-19T14:43:30.333Z,4.82
2017-05-19T14:45:58.870Z,5.65
2017-05-19T14:48:27.380Z,4.47
2017-05-19T14:50:55.877Z,6.03
2017-05-19T14:53:24.437Z,5.18
2017-05-19T14:55:52.936Z,4.60
2017-05-19T14:58:21.435Z,4.55
2017-05-19T15:00:49.976Z,4.85
2017-05-19T15:03:18.484Z,5.95
2017-05-19T15:05:47.054Z,6.83
2017-05-19T15:08:15.597Z,5.47
2017-05-19T15:10:44.095Z,5.97
2017-05-19T15:13:12.602Z,4.80
2017-05-19T15:15:41.183Z,9.12
2017-05-19T15:18:09.685Z,5.13
2017-05-19T15:20:38.187Z,6.42
2017-05-19T15:23:06.727Z,5.48
2017-05-19T15:25:35.234Z,5.60
2017-05-19T15:28:03.732Z,4.25
2017-05-19T15:30:32.268Z,6.50
2017-05-19T15:33:00.771Z,4.75
2017-05-19T15:35:29.276Z,5.10
2017-05-19T15:37:57.839Z,8.00
2017-05-19T15:40:26.341Z,4.95
2017-05-19T15:42:54.840Z,6.47
2017-05-19T15:45:23.397Z,4.07
2017-05-19T15:47:51.902Z,4.80
2017-05-19T15:50:20.404Z,5.65
2017-05-19T15:52:49.360Z,4.08
2017-05-19T15:55:17.865Z,6.12
2017-05-19T15:57:46.371Z,4.47
2017-05-19T16:00:14.912Z,7.90
2017-05-19T16:02:43.458Z,8.02
2017-05-19T16:05:11.985Z,5.85
2017-05-19T16:07:40.561Z,4.40
2017-05-19T16:10:09.070Z,6.47
2017-05-19T16:12:37.627Z,6.85
2017-05-19T16:15:06.188Z,5.12
2017-05-19T16:17:34.724Z,5.55
2017-05-19T16:20:04.032Z,7.95
2017-05-19T16:22:32.855Z,4.52
2017-05-19T16:25:01.364Z,4.03
2017-05-19T16:27:29.872Z,4.47
2017-05-19T16:29:58.429Z,6.03
2017-05-19T16:32:26.966Z,6.58
2017-05-19T16:34:55.568Z,4.50
2017-05-19T16:37:24.132Z,4.92
2017-05-19T16:39:52.651Z,6.75
2017-05-19T16:42:21.153Z,4.92
2017-05-19T16:44:49.699Z,5.20
2017-05-19T16:47:18.205Z,4.80
2017-05-19T16:49:46.714Z,5.27
2017-05-19T16:52:15.257Z,5.60
2017-05-19T16:54:43.757Z,5.77
2017-05-19T16:57:12.263Z,5.08
2017-05-19T16:59:40.801Z,4.88
2017-05-19T17:02:09.304Z,5.53
2017-05-19T17:04:37.810Z,5.45
2017-05-19T17:07:06.353Z,7.30
2017-05-19T17:09:34.843Z,8.67
2017-05-19T17:12:03.358Z,6.00
2017-05-19T17:14:31.917Z,5.50
2017-05-19T17:17:00.426Z,4.52
2017-05-19T17:19:28.934Z,5.02
2017-05-19T17:21:57.476Z,6.07
2017-05-19T17:24:25.998Z,7.28
2017-05-19T17:26:54.500Z,5.37
2017-05-19T17:29:23.040Z,5.67
2017-05-19T17:31:51.546Z,5.18
2017-05-19T17:34:20.042Z,4.88
2017-05-19T17:36:48.586Z,5.08
2017-05-19T17:39:17.092Z,5.97
2017-05-19T17:41:45.595Z,9.43
2017-05-19T17:44:14.152Z,7.25
2017-05-19T17:46:42.657Z,7.33
2017-05-19T17:49:11.173Z,6.60
2017-05-19T17:51:39.731Z,5.93
2017-05-19T17:54:08.232Z,5.52
2017-05-19T17:56:36.741Z,5.93
2017-05-19T17:59:05.419Z,6.08
2017-05-19T18:01:33.925Z,9.10
2017-05-19T18:04:02.435Z,5.80
2017-05-19T18:06:30.997Z,6.47
2017-05-19T18:08:59.514Z,6.10
2017-05-19T18:11:28.036Z,5.42
2017-05-19T18:13:56.576Z,6.55
2017-05-19T18:16:25.081Z,5.75
2017-05-19T18:18:53.688Z,7.10
2017-05-19T18:21:22.235Z,8.47
2017-05-19T18:23:50.738Z,6.38
2017-05-19T18:26:19.264Z,6.07
2017-05-19T18:28:47.809Z,7.03
2017-05-19T18:31:16.311Z,6.15
2017-05-19T18:33:44.816Z,6.67
2017-05-19T18:36:13.351Z,5.43
2017-05-19T18:38:41.873Z,6.28
2017-05-19T18:41:10.401Z,6.32
2017-05-19T18:43:38.945Z,8.88
2017-05-19T18:46:07.448Z,9.42
2017-05-19T18:48:35.959Z,6.57
2017-05-19T18:51:04.530Z,6.43
2017-05-19T18:54:00.297Z,7.03
2017-05-19T18:56:28.800Z,8.08
2017-05-19T18:58:57.303Z,6.85
2017-05-19T19:01:25.854Z,6.75
2017-05-19T19:03:54.361Z,5.78
2017-05-19T19:06:22.868Z,5.67
2017-05-19T19:08:51.409Z,8.90
2017-05-19T19:11:19.912Z,7.72
2017-05-19T19:13:48.412Z,6.02
2017-05-19T19:16:16.969Z,6.08
2017-05-19T19:18:45.477Z,10.73
2017-05-19T19:21:13.993Z,6.60
2017-05-19T19:23:42.568Z,7.10
2017-05-19T19:26:11.076Z,9.97
2017-05-19T19:28:39.580Z,6.70
2017-05-19T19:31:08.131Z,6.62
2017-05-19T19:33:36.639Z,7.03
2017-05-19T19:36:05.152Z,6.27
2017-05-19T19:38:33.693Z,5.67
2017-05-19T19:41:02.197Z,7.80
2017-05-19T19:43:30.715Z,6.93
2017-05-19T19:45:59.265Z,6.23
2017-05-19T19:48:27.765Z,7.58
2017-05-19T19:50:56.289Z,8.45
2017-05-19T19:53:24.855Z,7.77
2017-05-19T19:55:53.358Z,6.62
2017-05-19T19:58:21.872Z,8.90
2017-05-19T20:00:50.572Z,6.83
2017-05-19T20:03:19.097Z,7.08
2017-05-19T20:05:47.611Z,7.32
2017-05-19T20:08:16.186Z,8.52
2017-05-19T20:10:44.688Z,7.90
2017-05-19T20:13:13.203Z,7.32
2017-05-19T20:15:41.883Z,6.48
2017-05-19T20:18:11.309Z,7.30
2017-05-19T20:20:40.081Z,7.83
2017-05-19T20:23:08.663Z,6.78
2017-05-19T20:25:37.237Z,7.30
2017-05-19T20:28:06.462Z,6.75
2017-05-19T20:30:35.119Z,9.20
2017-05-19T20:33:03.708Z,10.57
2017-05-19T20:35:32.299Z,5.95
2017-05-19T20:38:01.036Z,7.37
2017-05-19T20:40:29.541Z,8.03
2017-05-19T20:42:58.290Z,7.05
2017-05-19T20:45:26.862Z,6.57
2017-05-19T20:47:55.386Z,7.38
2017-05-19T20:50:23.916Z,8.45
2017-05-19T20:52:52.507Z,8.97
2017-05-19T20:55:21.086Z,10.52
2017-05-19T20:57:49.610Z,13.58
2017-05-19T21:00:18.188Z,9.95
2017-05-19T21:02:46.704Z,9.97
2017-05-19T21:05:15.248Z,10.37
2017-05-19T21:07:43.800Z,9.82
2017-05-19T21:10:12.299Z,8.70
2017-05-19T21:12:40.824Z,7.12
2017-05-19T21:15:09.381Z,8.22
2017-05-19T21:17:37.885Z,9.67
2017-05-19T21:20:06.392Z,9.20
2017-05-19T21:22:35.549Z,9.78
2017-05-19T21:25:04.198Z,10.02
2017-05-19T21:27:32.759Z,10.88
2017-05-19T21:30:01.324Z,9.90
2017-05-19T21:32:29.857Z,8.78
2017-05-19T21:34:58.378Z,10.93
2017-05-19T21:37:26.924Z,9.05
2017-05-19T21:39:55.428Z,10.08
2017-05-19T21:42:23.943Z,10.63
2017-05-19T21:44:52.505Z,8.93
2017-05-19T21:47:21.015Z,10.30
2017-05-19T21:49:49.525Z,7.90
2017-05-19T21:52:18.100Z,10.42
2017-05-19T21:54:46.604Z,10.35
2017-05-19T21:57:15.105Z,8.87
2017-05-19T21:59:43.652Z,8.03
2017-05-19T22:02:12.159Z,9.57
2017-05-19T22:04:40.660Z,8.60
2017-05-19T22:07:09.210Z,11.00
2017-05-19T22:09:37.712Z,8.85
2017-05-19T22:12:06.214Z,8.63
2017-05-19T22:14:34.766Z,11.32
2017-05-19T22:17:03.269Z,9.17
2017-05-19T22:19:31.776Z,10.55
2017-05-19T22:22:00.320Z,9.18
2017-05-19T22:24:28.825Z,9.63
2017-05-19T22:26:57.332Z,13.25
2017-05-19T22:29:25.880Z,11.72
2017-05-19T22:31:54.387Z,10.10
2017-05-19T22:34:22.898Z,10.00
2017-05-19T22:36:51.448Z,10.35
2017-05-19T22:39:19.956Z,10.02
2017-05-19T22:41:48.480Z,11.20
2017-05-19T22:44:17.023Z,9.33
2017-05-19T22:46:45.525Z,10.22
2017-05-19T22:49:14.213Z,9.05
2017-05-19T22:51:42.761Z,7.95
2017-05-19T22:54:11.264Z,9.18
2017-05-19T22:56:39.779Z,10.08
2017-05-19T22:59:08.326Z,9.05
2017-05-19T23:01:36.829Z,11.80
2017-05-19T23:04:05.336Z,8.38
2017-05-19T23:06:33.880Z,9.05
2017-05-19T23:09:02.397Z,12.37
2017-05-19T23:11:30.909Z,10.55
2017-05-19T23:13:59.447Z,10.05
2017-05-19T23:16:27.952Z,12.37
2017-05-19T23:18:56.460Z,10.23
2017-05-19T23:21:25.053Z,13.88
2017-05-19T23:23:53.561Z,12.80
2017-05-19T23:26:22.069Z,12.10
2017-05-19T23:28:50.616Z,11.12
2017-05-19T23:31:19.130Z,11.33
2017-05-19T23:33:47.641Z,12.07
2017-05-19T23:36:16.199Z,15.02
2017-05-19T23:38:44.730Z,11.35
2017-05-19T23:41:13.254Z,14.82
2017-05-19T23:43:41.817Z,13.43
2017-05-19T23:46:10.323Z,11.58
2017-05-19T23:48:38.824Z,10.30
2017-05-19T23:51:07.372Z,10.28
2017-05-19T23:53:35.881Z,12.98
2017-05-19T23:56:04.383Z,11.25
2017-05-19T23:58:32.941Z,10.98
